createdAt,value
2018-07-31T00:00:02.447Z,99.90
2018-07-31T00:02:31.309Z,99.90
2018-07-31T00:04:59.847Z,99.90
2018-07-31T00:07:28.412Z,99.90
2018-07-31T00:09:56.962Z,99.90
2018-07-31T00:12:25.608Z,99.90
2018-07-31T00:14:54.123Z,99.90
2018-07-31T00:17:22.783Z,99.90
2018-07-31T00:19:51.320Z,99.90
2018-07-31T00:22:19.855Z,99.90
2018-07-31T00:24:48.331Z,99.90
2018-07-31T00:27:16.935Z,99.90
2018-07-31T00:29:45.729Z,99.90
2018-07-31T00:34:42.445Z,99.90
2018-07-31T00:37:11.303Z,99.90
2018-07-31T00:39:40.076Z,99.90
2018-07-31T00:42:08.889Z,99.90
2018-07-31T00:44:37.619Z,99.90
2018-07-31T00:47:06.212Z,99.90
2018-07-31T00:49:34.907Z,99.90
2018-07-31T00:52:03.676Z,99.90
2018-07-31T00:54:32.171Z,99.90
2018-07-31T00:57:00.836Z,99.90
2018-07-31T00:59:29.510Z,99.90
2018-07-31T01:01:57.983Z,99.90
2018-07-31T01:04:26.472Z,99.90
2018-07-31T01:06:55.371Z,99.90
2018-07-31T01:09:23.855Z,99.90
2018-07-31T01:11:52.531Z,99.90
2018-07-31T01:14:21.202Z,99.90
2018-07-31T01:16:49.672Z,99.90
2018-07-31T01:19:18.835Z,99.90
2018-07-31T01:21:47.943Z,99.90
2018-07-31T01:26:44.952Z,99.90
2018-07-31T01:29:13.508Z,99.90
2018-07-31T01:31:42.017Z,99.90
2018-07-31T01:34:10.647Z,99.90
2018-07-31T01:36:39.813Z,99.90
2018-07-31T01:39:10.147Z,99.90
2018-07-31T01:41:38.757Z,99.90
2018-07-31T01:44:07.233Z,99.90
2018-07-31T01:46:35.944Z,99.90
2018-07-31T01:49:04.630Z,99.90
2018-07-31T01:51:33.399Z,99.90
2018-07-31T01:54:02.178Z,99.90
2018-07-31T01:56:30.711Z,99.90
2018-07-31T01:58:59.482Z,99.90
2018-07-31T02:01:28.364Z,99.90
2018-07-31T02:03:56.897Z,99.90
2018-07-31T02:06:27.329Z,99.90
2018-07-31T02:08:56.964Z,99.90
2018-07-31T02:11:25.680Z,99.90
2018-07-31T02:13:54.586Z,99.90
2018-07-31T02:16:23.719Z,99.90
2018-07-31T02:18:52.212Z,99.90
2018-07-31T02:23:49.515Z,99.90
2018-07-31T02:26:18.008Z,99.90
2018-07-31T02:28:46.700Z,99.90
2018-07-31T02:31:15.362Z,99.90
2018-07-31T02:33:43.880Z,99.90
2018-07-31T02:36:12.409Z,99.90
2018-07-31T02:38:41.164Z,99.90
2018-07-31T02:41:09.839Z,99.90
2018-07-31T02:43:38.322Z,99.90
2018-07-31T02:46:07.309Z,99.90
2018-07-31T02:48:35.810Z,99.90
2018-07-31T02:51:04.332Z,99.90
2018-07-31T02:53:33.124Z,99.90
2018-07-31T02:56:01.911Z,99.90
2018-07-31T02:58:30.479Z,99.90
2018-07-31T03:00:59.004Z,99.90
2018-07-31T03:03:27.731Z,99.90
2018-07-31T03:08:24.795Z,99.90
2018-07-31T03:10:53.276Z,99.90
2018-07-31T03:13:21.843Z,99.90
2018-07-31T03:15:50.307Z,99.90
2018-07-31T03:18:23.771Z,99.90
2018-07-31T03:20:52.443Z,99.90
2018-07-31T03:23:21.102Z,99.90
2018-07-31T03:25:49.592Z,99.90
2018-07-31T03:28:18.229Z,99.90
2018-07-31T03:33:15.071Z,99.90
2018-07-31T03:35:43.542Z,99.90
2018-07-31T03:38:12.135Z,99.90
2018-07-31T03:40:40.791Z,99.90
2018-07-31T03:45:37.439Z,99.90
2018-07-31T03:48:06.055Z,99.90
2018-07-31T03:50:35.042Z,99.90
2018-07-31T03:53:03.768Z,99.90
2018-07-31T03:55:33.179Z,99.90
2018-07-31T03:58:03.317Z,99.90
2018-07-31T04:00:31.946Z,99.90
2018-07-31T04:03:00.528Z,99.90
2018-07-31T04:05:29.794Z,99.90
2018-07-31T04:07:58.309Z,99.90
2018-07-31T04:10:27.378Z,99.90
2018-07-31T04:12:56.086Z,99.90
2018-07-31T04:15:24.579Z,99.90
2018-07-31T04:17:56.509Z,99.90
2018-07-31T04:20:25.733Z,99.90
2018-07-31T04:22:54.479Z,99.90
2018-07-31T04:25:23.602Z,99.90
2018-07-31T04:27:52.329Z,99.90
2018-07-31T04:30:21.074Z,99.90
2018-07-31T04:32:49.580Z,99.90
2018-07-31T04:35:18.261Z,99.90
2018-07-31T04:37:46.787Z,99.90
2018-07-31T04:40:15.353Z,99.90
2018-07-31T04:42:44.157Z,99.90
2018-07-31T04:45:12.715Z,99.90
2018-07-31T04:47:41.190Z,99.90
2018-07-31T04:50:10.795Z,99.90
2018-07-31T04:52:39.932Z,99.90
2018-07-31T04:55:08.847Z,99.90
2018-07-31T05:00:07.712Z,99.90
2018-07-31T05:02:36.902Z,99.90
2018-07-31T05:05:05.677Z,99.90
2018-07-31T05:07:39.315Z,99.90
2018-07-31T05:10:11.899Z,99.90
2018-07-31T05:12:41.641Z,99.90
2018-07-31T05:15:10.133Z,99.90
2018-07-31T05:17:39.528Z,99.90
2018-07-31T05:20:09.614Z,99.90
2018-07-31T05:22:38.753Z,99.90
2018-07-31T05:25:07.410Z,99.90
2018-07-31T05:27:35.935Z,99.90
2018-07-31T05:30:06.091Z,99.90
2018-07-31T05:32:34.975Z,99.90
2018-07-31T05:35:03.551Z,99.90
2018-07-31T05:37:32.183Z,99.90
2018-07-31T05:40:00.927Z,99.90
2018-07-31T05:42:29.776Z,99.90
2018-07-31T05:44:58.754Z,99.90
2018-07-31T05:47:27.442Z,99.90
2018-07-31T05:49:55.959Z,99.90
2018-07-31T05:52:24.803Z,99.90
2018-07-31T05:54:53.314Z,99.90
2018-07-31T05:57:21.994Z,99.90
2018-07-31T05:59:50.470Z,99.90
2018-07-31T06:02:19.248Z,99.90
2018-07-31T06:04:47.851Z,99.90
2018-07-31T06:07:16.427Z,99.90
2018-07-31T06:09:44.977Z,99.90
2018-07-31T06:12:13.742Z,99.90
2018-07-31T06:14:42.627Z,99.90
2018-07-31T06:17:11.221Z,99.90
2018-07-31T06:19:39.792Z,99.90
2018-07-31T06:22:08.414Z,99.90
2018-07-31T06:27:05.943Z,99.90
2018-07-31T06:29:34.479Z,99.40
2018-07-31T06:34:31.285Z,99.20
2018-07-31T06:36:59.866Z,99.20
2018-07-31T06:39:28.434Z,99.00
2018-07-31T06:41:57.037Z,98.70
2018-07-31T06:44:25.544Z,98.20
2018-07-31T06:46:54.458Z,97.80
2018-07-31T06:49:23.310Z,97.70
2018-07-31T06:51:52.060Z,97.70
2018-07-31T06:54:20.713Z,97.50
2018-07-31T06:56:49.463Z,97.70
2018-07-31T06:59:17.970Z,97.40
2018-07-31T07:01:46.507Z,97.40
2018-07-31T07:04:15.126Z,97.00
2018-07-31T07:06:43.744Z,96.90
2018-07-31T07:09:12.774Z,96.70
2018-07-31T07:11:41.701Z,96.80
2018-07-31T07:14:10.225Z,96.50
2018-07-31T07:16:39.248Z,96.50
2018-07-31T07:19:07.775Z,96.10
2018-07-31T07:21:36.270Z,95.70
2018-07-31T07:24:05.323Z,95.10
2018-07-31T07:26:33.770Z,94.90
2018-07-31T07:29:02.323Z,94.60
2018-07-31T07:33:59.605Z,93.70
2018-07-31T07:36:28.463Z,93.00
2018-07-31T07:38:57.018Z,93.20
2018-07-31T07:41:25.595Z,93.10
2018-07-31T07:43:54.253Z,93.00
2018-07-31T07:46:23.079Z,93.10
2018-07-31T07:48:51.860Z,92.90
2018-07-31T07:51:20.431Z,92.00
2018-07-31T07:53:49.199Z,92.20
2018-07-31T07:56:17.982Z,91.60
2018-07-31T07:58:46.923Z,91.50
2018-07-31T08:01:15.472Z,91.50
2018-07-31T08:03:44.329Z,91.20
2018-07-31T08:06:16.953Z,90.90
2018-07-31T08:08:45.456Z,90.50
2018-07-31T08:11:14.278Z,90.10
2018-07-31T08:13:42.927Z,89.10
2018-07-31T08:16:11.771Z,88.10
2018-07-31T08:18:40.619Z,86.50
2018-07-31T08:21:09.261Z,85.20
2018-07-31T08:23:38.035Z,84.60
2018-07-31T08:26:06.753Z,83.50
2018-07-31T08:28:35.662Z,81.90
2018-07-31T08:31:04.163Z,80.60
2018-07-31T08:33:33.342Z,78.80
2018-07-31T08:36:02.078Z,78.00
2018-07-31T08:38:30.957Z,76.60
2018-07-31T08:40:59.819Z,75.50
2018-07-31T08:43:28.427Z,74.30
2018-07-31T08:45:57.512Z,72.20
2018-07-31T08:50:54.646Z,70.80
2018-07-31T08:53:23.239Z,69.60
2018-07-31T08:55:51.763Z,69.00
2018-07-31T08:58:20.227Z,69.10
2018-07-31T09:00:49.014Z,68.70
2018-07-31T09:05:45.951Z,67.90
2018-07-31T09:08:14.911Z,68.20
2018-07-31T09:10:43.360Z,66.80
2018-07-31T09:13:12.364Z,66.40
2018-07-31T09:15:41.093Z,66.40
2018-07-31T09:18:09.810Z,65.60
2018-07-31T09:23:07.007Z,65.40
2018-07-31T09:25:41.176Z,65.50
2018-07-31T09:28:09.967Z,64.70
2018-07-31T09:30:43.199Z,64.20
2018-07-31T09:33:12.096Z,63.60
2018-07-31T09:35:40.635Z,63.80
2018-07-31T09:38:09.765Z,63.00
2018-07-31T09:40:38.363Z,62.30
2018-07-31T09:43:06.917Z,62.70
2018-07-31T09:45:35.462Z,61.50
2018-07-31T09:48:04.298Z,59.40
2018-07-31T09:50:32.917Z,58.60
2018-07-31T09:53:01.629Z,58.10
2018-07-31T09:55:30.272Z,58.50
2018-07-31T09:57:58.994Z,57.40
2018-07-31T10:00:32.834Z,56.50
2018-07-31T10:03:01.553Z,55.80
2018-07-31T10:05:30.487Z,55.30
2018-07-31T10:07:59.153Z,54.50
2018-07-31T10:10:28.144Z,53.40
2018-07-31T10:12:56.716Z,52.60
2018-07-31T10:15:25.243Z,51.50
2018-07-31T10:17:53.749Z,51.60
2018-07-31T10:20:22.309Z,50.80
2018-07-31T10:22:51.281Z,51.00
2018-07-31T10:25:20.090Z,49.70
2018-07-31T10:27:49.125Z,49.20
2018-07-31T10:30:17.680Z,49.10
2018-07-31T10:32:46.634Z,47.90
2018-07-31T10:35:15.391Z,47.60
2018-07-31T10:37:44.378Z,47.60
2018-07-31T10:40:12.940Z,45.50
2018-07-31T10:42:41.579Z,44.10
2018-07-31T10:45:10.278Z,42.10
2018-07-31T10:47:38.940Z,42.10
2018-07-31T10:50:07.439Z,41.30
2018-07-31T10:52:36.205Z,42.90
2018-07-31T10:55:04.991Z,42.30
2018-07-31T10:57:33.554Z,42.20
2018-07-31T11:00:02.066Z,40.30
2018-07-31T11:02:30.669Z,40.40
2018-07-31T11:04:59.406Z,41.00
2018-07-31T11:07:28.164Z,41.00
2018-07-31T11:09:56.687Z,40.50
2018-07-31T11:12:25.188Z,39.90
2018-07-31T11:14:53.769Z,39.40
2018-07-31T11:17:22.301Z,39.20
2018-07-31T11:19:51.109Z,37.70
2018-07-31T11:22:19.767Z,37.10
2018-07-31T11:27:16.658Z,35.60
2018-07-31T11:29:45.349Z,35.20
2018-07-31T11:32:13.829Z,34.20
2018-07-31T11:34:43.069Z,33.50
2018-07-31T11:37:11.868Z,34.70
2018-07-31T11:39:40.423Z,33.80
2018-07-31T11:42:09.478Z,33.90
2018-07-31T11:44:38.219Z,33.70
2018-07-31T11:47:06.823Z,32.30
2018-07-31T11:49:35.533Z,31.50
2018-07-31T11:52:04.289Z,31.20
2018-07-31T11:54:33.115Z,30.80
2018-07-31T11:57:01.803Z,30.90
2018-07-31T11:59:30.335Z,31.00
2018-07-31T12:01:59.071Z,30.00
2018-07-31T12:04:27.794Z,30.40
2018-07-31T12:06:56.528Z,30.00
2018-07-31T12:09:25.430Z,29.90
2018-07-31T12:11:54.168Z,29.40
2018-07-31T12:14:22.901Z,29.30
2018-07-31T12:16:51.604Z,29.00
2018-07-31T12:19:20.169Z,28.20
2018-07-31T12:21:48.700Z,27.70
2018-07-31T12:24:17.537Z,28.30
2018-07-31T12:26:46.237Z,29.10
2018-07-31T12:29:15.104Z,28.70
2018-07-31T12:31:43.718Z,28.40
2018-07-31T12:34:12.588Z,28.50
2018-07-31T12:36:41.416Z,28.40
2018-07-31T12:39:12.076Z,27.90
2018-07-31T12:41:40.640Z,27.90
2018-07-31T12:44:09.740Z,28.20
2018-07-31T12:46:38.699Z,28.60
2018-07-31T12:49:07.638Z,29.40
2018-07-31T12:51:36.565Z,30.00
2018-07-31T12:54:05.487Z,29.00
2018-07-31T12:56:34.200Z,28.80
2018-07-31T12:59:03.043Z,28.90
2018-07-31T13:01:31.738Z,28.80
2018-07-31T13:04:00.311Z,29.40
2018-07-31T13:06:29.274Z,29.70
2018-07-31T13:08:57.908Z,29.40
2018-07-31T13:11:26.573Z,29.10
2018-07-31T13:13:56.185Z,28.70
2018-07-31T13:16:25.484Z,29.50
2018-07-31T13:18:54.204Z,31.30
2018-07-31T13:21:22.915Z,33.10
2018-07-31T13:23:51.479Z,34.40
2018-07-31T13:26:20.646Z,35.20
2018-07-31T13:28:49.300Z,34.60
2018-07-31T13:31:18.210Z,34.60
2018-07-31T13:33:46.799Z,33.80
2018-07-31T13:36:15.487Z,32.10
2018-07-31T13:38:44.126Z,30.60
2018-07-31T13:41:12.932Z,31.70
2018-07-31T13:43:41.800Z,32.10
2018-07-31T13:46:10.453Z,32.40
2018-07-31T13:48:39.611Z,31.10
2018-07-31T13:53:36.505Z,31.00
2018-07-31T13:56:05.411Z,31.40
2018-07-31T13:58:34.422Z,31.10
2018-07-31T14:01:03.020Z,30.50
2018-07-31T14:03:31.560Z,31.20
2018-07-31T14:06:00.164Z,30.10
2018-07-31T14:08:29.034Z,29.60
2018-07-31T14:10:57.764Z,29.80
2018-07-31T14:13:26.452Z,29.90
2018-07-31T14:15:55.258Z,28.80
2018-07-31T14:20:52.751Z,28.80
2018-07-31T14:23:22.122Z,29.10
2018-07-31T14:25:51.719Z,28.90
2018-07-31T14:28:20.919Z,28.60
2018-07-31T14:30:50.107Z,28.80
2018-07-31T14:33:18.590Z,28.90
2018-07-31T14:35:47.400Z,28.10
2018-07-31T14:40:44.691Z,28.30
2018-07-31T14:43:13.296Z,28.40
2018-07-31T14:45:41.893Z,28.80
2018-07-31T14:48:10.577Z,28.70
2018-07-31T14:50:39.347Z,28.10
2018-07-31T14:53:08.401Z,28.80
2018-07-31T14:55:37.067Z,28.40
2018-07-31T14:58:06.039Z,29.50
2018-07-31T15:00:34.646Z,30.20
2018-07-31T15:03:03.279Z,31.40
2018-07-31T15:05:32.159Z,31.30
2018-07-31T15:08:01.074Z,30.50
2018-07-31T15:10:29.701Z,29.80
2018-07-31T15:12:58.314Z,28.80
2018-07-31T15:15:27.487Z,28.40
2018-07-31T15:17:56.392Z,27.70
2018-07-31T15:20:25.178Z,28.00
2018-07-31T15:25:22.174Z,28.00
2018-07-31T15:27:51.013Z,28.30
2018-07-31T15:30:19.838Z,28.40
2018-07-31T15:32:48.605Z,28.50
2018-07-31T15:35:17.473Z,28.10
2018-07-31T15:37:46.277Z,27.90
2018-07-31T15:40:14.865Z,28.70
2018-07-31T15:42:43.920Z,28.70
2018-07-31T15:45:12.680Z,28.40
2018-07-31T15:47:41.635Z,28.50
2018-07-31T15:50:10.741Z,29.10
2018-07-31T15:55:07.574Z,28.80
2018-07-31T15:57:36.617Z,28.80
2018-07-31T16:00:08.273Z,28.60
2018-07-31T16:02:37.312Z,28.80
2018-07-31T16:05:06.250Z,29.50
2018-07-31T16:07:34.789Z,29.50
2018-07-31T16:10:03.576Z,29.30
2018-07-31T16:12:32.382Z,30.00
2018-07-31T16:15:01.229Z,31.80
2018-07-31T16:17:29.801Z,32.30
2018-07-31T16:19:58.494Z,33.60
2018-07-31T16:22:27.492Z,34.70
2018-07-31T16:24:56.272Z,35.70
2018-07-31T16:27:24.926Z,37.00
2018-07-31T16:32:21.890Z,38.70
2018-07-31T16:37:18.831Z,38.60
2018-07-31T16:39:47.467Z,39.60
2018-07-31T16:42:15.951Z,39.40
2018-07-31T16:44:44.516Z,39.90
2018-07-31T16:47:13.198Z,41.40
2018-07-31T16:49:42.382Z,42.40
2018-07-31T16:52:10.947Z,43.20
2018-07-31T16:54:39.784Z,43.10
2018-07-31T16:57:08.719Z,42.80
2018-07-31T16:59:38.937Z,43.20
2018-07-31T17:02:07.528Z,43.60
2018-07-31T17:04:36.325Z,43.60
2018-07-31T17:07:05.096Z,44.90
2018-07-31T17:09:33.799Z,44.90
2018-07-31T17:12:02.351Z,45.10
2018-07-31T17:14:31.262Z,45.80
2018-07-31T17:16:59.825Z,46.00
2018-07-31T17:19:28.721Z,46.40
2018-07-31T17:21:57.474Z,46.60
2018-07-31T17:24:26.194Z,46.80
2018-07-31T17:26:54.893Z,46.60
2018-07-31T17:29:23.926Z,47.20
2018-07-31T17:31:52.556Z,47.50
2018-07-31T17:34:21.529Z,47.40
2018-07-31T17:36:55.164Z,47.80
2018-07-31T17:39:24.006Z,47.90
2018-07-31T17:41:52.992Z,48.00
2018-07-31T17:44:21.574Z,48.70
2018-07-31T17:46:50.128Z,48.60
2018-07-31T17:49:18.854Z,49.20
2018-07-31T17:51:47.596Z,49.20
2018-07-31T17:54:16.295Z,49.80
2018-07-31T17:56:45.461Z,50.00
2018-07-31T17:59:14.017Z,50.20
2018-07-31T18:01:42.619Z,50.30
2018-07-31T18:04:11.492Z,50.20
2018-07-31T18:06:40.412Z,50.30
2018-07-31T18:09:10.070Z,51.00
2018-07-31T18:11:40.109Z,51.10
2018-07-31T18:14:08.934Z,51.60
2018-07-31T18:16:38.363Z,51.40
2018-07-31T18:21:35.371Z,52.00
2018-07-31T18:24:04.599Z,52.50
2018-07-31T18:26:33.309Z,51.90
2018-07-31T18:29:02.101Z,52.60
2018-07-31T18:31:30.922Z,52.70
2018-07-31T18:33:59.585Z,52.30
2018-07-31T18:36:28.442Z,52.70
2018-07-31T18:38:57.316Z,52.80
2018-07-31T18:41:25.981Z,54.30
2018-07-31T18:43:54.556Z,53.70
2018-07-31T18:46:24.273Z,53.50
2018-07-31T18:48:53.180Z,54.20
2018-07-31T18:51:21.983Z,54.00
2018-07-31T18:53:50.655Z,54.40
2018-07-31T18:56:19.260Z,54.40
2018-07-31T18:58:48.044Z,54.70
2018-07-31T19:01:16.887Z,54.70
2018-07-31T19:03:45.869Z,55.30
2018-07-31T19:06:14.877Z,55.50
2018-07-31T19:08:43.386Z,55.00
2018-07-31T19:11:12.277Z,54.80
2018-07-31T19:13:41.184Z,54.70
2018-07-31T19:16:09.772Z,54.40
2018-07-31T19:18:38.678Z,54.20
2018-07-31T19:21:07.575Z,54.40
2018-07-31T19:23:36.426Z,55.80
2018-07-31T19:26:05.096Z,54.90
2018-07-31T19:28:34.214Z,55.50
2018-07-31T19:31:03.207Z,55.60
2018-07-31T19:33:31.956Z,56.40
2018-07-31T19:36:00.614Z,56.40
2018-07-31T19:40:57.728Z,58.60
2018-07-31T19:43:26.478Z,58.70
2018-07-31T19:48:23.645Z,59.70
2018-07-31T19:50:52.418Z,60.20
2018-07-31T19:53:21.137Z,59.90
2018-07-31T19:55:49.974Z,60.40
2018-07-31T19:58:18.808Z,60.30
2018-07-31T20:00:47.541Z,61.00
2018-07-31T20:03:16.136Z,62.00
2018-07-31T20:05:45.413Z,62.70
2018-07-31T20:08:14.459Z,61.70
2018-07-31T20:10:43.273Z,62.10
2018-07-31T20:13:12.278Z,62.60
2018-07-31T20:15:41.270Z,63.80
2018-07-31T20:18:09.942Z,64.50
2018-07-31T20:20:38.746Z,65.10
2018-07-31T20:23:07.332Z,66.00
2018-07-31T20:25:36.109Z,68.30
2018-07-31T20:28:05.165Z,70.00
2018-07-31T20:30:33.934Z,70.90
2018-07-31T20:33:02.930Z,71.60
2018-07-31T20:35:31.559Z,72.30
2018-07-31T20:38:00.246Z,73.50
2018-07-31T20:40:28.935Z,74.90
2018-07-31T20:42:57.621Z,76.00
2018-07-31T20:45:26.276Z,76.60
2018-07-31T20:47:54.916Z,77.50
2018-07-31T20:50:23.604Z,79.40
2018-07-31T20:52:52.498Z,80.50
2018-07-31T20:55:21.362Z,81.30
2018-07-31T20:57:49.941Z,81.70
2018-07-31T21:00:18.703Z,83.20
2018-07-31T21:02:47.442Z,83.00
2018-07-31T21:05:16.203Z,84.20
2018-07-31T21:07:45.357Z,85.10
2018-07-31T21:10:13.901Z,84.90
2018-07-31T21:12:42.607Z,84.40
2018-07-31T21:15:11.527Z,85.10
2018-07-31T21:17:40.088Z,85.50
2018-07-31T21:20:09.427Z,86.20
2018-07-31T21:22:38.395Z,86.70
2018-07-31T21:25:07.489Z,86.90
2018-07-31T21:27:36.371Z,87.30
2018-07-31T21:30:05.461Z,87.10
2018-07-31T21:32:34.509Z,87.00
2018-07-31T21:35:03.501Z,87.80
2018-07-31T21:37:32.334Z,88.10
2018-07-31T21:40:00.828Z,88.50
2018-07-31T21:42:29.600Z,88.90
2018-07-31T21:44:58.368Z,89.20
2018-07-31T21:47:27.217Z,89.40
2018-07-31T21:49:55.765Z,90.20
2018-07-31T21:52:24.346Z,90.30
2018-07-31T21:54:53.623Z,90.20
2018-07-31T21:57:22.368Z,90.10
2018-07-31T21:59:51.299Z,90.30
2018-07-31T22:02:20.214Z,90.70
2018-07-31T22:04:48.839Z,91.00
2018-07-31T22:07:17.393Z,91.40
2018-07-31T22:09:46.050Z,91.40
2018-07-31T22:12:14.956Z,91.40
2018-07-31T22:14:43.677Z,91.60
2018-07-31T22:17:12.216Z,91.90
2018-07-31T22:19:46.275Z,92.50
2018-07-31T22:24:43.248Z,93.30
2018-07-31T22:27:12.058Z,93.50
2018-07-31T22:29:40.732Z,93.90
2018-07-31T22:32:09.300Z,93.70
2018-07-31T22:34:38.243Z,94.20
2018-07-31T22:37:07.159Z,94.20
2018-07-31T22:39:35.699Z,94.20
2018-07-31T22:42:04.532Z,94.50
2018-07-31T22:44:33.051Z,94.60
2018-07-31T22:47:01.596Z,95.20
2018-07-31T22:51:58.641Z,95.40
2018-07-31T22:54:27.529Z,95.30
2018-07-31T22:56:56.184Z,95.00
2018-07-31T22:59:24.826Z,96.60
2018-07-31T23:04:21.596Z,96.40
2018-07-31T23:09:18.820Z,96.90
2018-07-31T23:11:47.496Z,96.80
2018-07-31T23:14:16.267Z,97.00
2018-07-31T23:16:44.787Z,97.10
2018-07-31T23:19:13.490Z,97.20
2018-07-31T23:21:42.237Z,97.20
2018-07-31T23:24:11.034Z,97.00
2018-07-31T23:26:39.801Z,96.80
2018-07-31T23:29:08.300Z,96.70
2018-07-31T23:31:37.299Z,96.60
2018-07-31T23:34:06.300Z,96.60
2018-07-31T23:36:35.538Z,97.10
2018-07-31T23:39:05.724Z,97.40
2018-07-31T23:41:34.364Z,97.60
2018-07-31T23:44:02.892Z,97.90
2018-07-31T23:46:31.576Z,97.90
2018-07-31T23:49:00.480Z,97.90
2018-07-31T23:51:28.967Z,97.80
2018-07-31T23:53:57.544Z,97.50
2018-07-31T23:56:26.024Z,97.70
2018-07-31T23:58:54.695Z,97.40
